Time;durP1;ratioP1;P1;durP2;ratioP2;P2;SDS_P1;SDS_P2;PMS_P1;PMS_P2;Temp;Humidity;BMP_temperature;BMP_pressure;BME280_temperature;BME280_humidity;BME280_pressure;Samples;Min_cycle;Max_cycle;Signal;HPM_P1;HPM_P2
2021/06/04 00:02:16;;;;;;;8.82;6.18;;;;;;;15.36;72.41;99281.22;5091692;28;20550;-77
2021/06/04 00:04:41;;;;;;;11.43;5.40;;;;;;;15.43;72.43;99284.97;5092748;28;20089;-77
2021/06/04 00:07:07;;;;;;;12.00;6.38;;;;;;;15.47;72.54;99287.19;5092788;28;20549;-76
2021/06/04 00:09:33;;;;;;;19.35;6.75;;;;;;;15.47;71.96;99283.66;5091920;28;20044;-77
2021/06/04 00:12:00;;;;;;;24.70;7.00;;;;;;;15.61;71.91;99293.88;5092673;28;20125;-75
2021/06/04 00:14:31;;;;;;;21.27;7.82;;;;;;;15.61;71.94;99288.50;5075060;28;20040;-77
2021/06/04 00:17:09;;;;;;;28.60;7.82;;;;;;;15.71;71.60;99291.13;5042483;28;20048;-77
2021/06/04 00:19:35;;;;;;;22.80;7.78;;;;;;;15.66;71.25;99290.75;5041610;28;20134;-78
2021/06/04 00:22:24;;;;;;;27.40;8.85;;;;;;;15.67;71.40;99289.75;5092052;28;20502;-80
2021/06/04 00:25:37;;;;;;;23.52;9.45;;;;;;;15.72;71.18;99301.75;5075212;28;20036;-80
2021/06/04 00:32:22;;;;;;;22.40;8.77;;;;;;;15.67;70.97;99309.44;5112887;28;20058;-79
2021/06/04 00:34:49;;;;;;;23.35;9.07;;;;;;;15.64;70.20;99315.09;5095077;28;20095;-78
2021/06/04 00:37:15;;;;;;;23.15;9.75;;;;;;;15.60;70.24;99310.19;5094677;28;20039;-78
2021/06/04 00:39:41;;;;;;;20.83;9.85;;;;;;;15.62;70.75;99319.81;5116680;28;20039;-79
2021/06/04 00:42:25;;;;;;;19.98;9.10;;;;;;;15.69;70.47;99323.63;5098634;28;20044;-77
2021/06/04 00:44:55;;;;;;;23.27;9.82;;;;;;;15.78;70.53;99328.06;5099011;28;20589;-76
2021/06/04 00:47:24;;;;;;;25.52;9.68;;;;;;;15.84;70.27;99336.53;5099305;28;20043;-77
2021/06/04 00:49:53;;;;;;;23.65;9.85;;;;;;;15.72;70.27;99344.88;5098406;28;20051;-77
2021/06/04 00:52:24;;;;;;;24.05;10.27;;;;;;;15.63;70.66;99340.38;5082017;28;20094;-77
2021/06/04 00:54:50;;;;;;;24.33;10.38;;;;;;;15.60;70.87;99347.91;5037967;28;20130;-77
2021/06/04 00:57:16;;;;;;;27.35;10.52;;;;;;;15.62;71.20;99349.47;5078061;28;20527;-76
2021/06/04 00:59:43;;;;;;;20.52;9.43;;;;;;;15.54;71.15;99344.00;5061857;28;20042;-78
2021/06/04 01:02:19;;;;;;;26.10;9.55;;;;;;;15.45;71.68;99348.44;5096037;28;20044;-78
2021/06/04 01:04:46;;;;;;;22.10;9.77;;;;;;;15.41;71.93;99354.31;5061658;28;20130;-78
2021/06/04 01:07:31;;;;;;;26.85;10.77;;;;;;;15.42;71.95;99361.38;5061253;28;20071;-78
2021/06/04 01:10:03;;;;;;;24.27;11.45;;;;;;;15.44;72.20;99367.47;5071224;28;20437;-79
2021/06/04 01:12:54;;;;;;;27.98;9.63;;;;;;;15.28;71.71;99360.06;5043307;28;20063;-79
2021/06/04 01:19:50;;;;;;;24.77;9.43;;;;;;;15.24;71.92;99364.91;5095976;28;20043;-77
2021/06/04 01:22:32;;;;;;;31.05;11.13;;;;;;;15.36;72.14;99364.69;5029321;28;20433;-78
2021/06/04 01:25:20;;;;;;;18.50;9.20;;;;;;;15.40;71.15;99376.84;5022702;28;20043;-78
2021/06/04 01:27:47;;;;;;;29.40;9.52;;;;;;;15.41;71.10;99367.78;5062656;28;20047;-78
2021/06/04 01:30:36;;;;;;;25.00;9.40;;;;;;;15.29;70.80;99369.84;5061236;28;20044;-80
2021/06/04 01:33:08;;;;;;;27.00;10.38;;;;;;;15.18;71.13;99368.22;5060807;28;20036;-78
2021/06/04 01:35:47;;;;;;;27.85;9.85;;;;;;;15.32;71.23;99379.47;5045772;28;20395;-79
2021/06/04 01:38:15;;;;;;;27.40;10.15;;;;;;;15.36;71.01;99378.16;5045205;28;20071;-78
2021/06/04 01:40:45;;;;;;;27.20;10.88;;;;;;;15.33;70.45;99383.84;5044606;28;20048;-79
2021/06/04 01:43:42;;;;;;;21.30;10.27;;;;;;;15.45;70.89;99393.41;5045658;28;20043;-78
2021/06/04 01:46:26;;;;;;;25.13;8.90;;;;;;;15.46;69.88;99381.66;5022476;28;20151;-79
2021/06/04 01:48:54;;;;;;;17.45;9.38;;;;;;;15.46;70.01;99378.94;5062085;28;20047;-76
2021/06/04 01:51:24;;;;;;;19.65;8.32;;;;;;;15.63;69.97;99378.09;5068301;28;20089;-76
2021/06/04 01:54:00;;;;;;;23.27;7.80;;;;;;;15.71;69.52;99383.59;5084587;27;20051;-77
2021/06/04 01:56:38;;;;;;;21.65;10.75;;;;;;;15.86;69.15;99377.66;5084268;27;20043;-77
2021/06/04 01:59:12;;;;;;;25.52;7.15;;;;;;;15.99;68.68;99388.91;5086651;27;20039;-77
2021/06/04 02:01:41;;;;;;;20.77;6.93;;;;;;;16.05;68.33;99382.00;5084830;27;20051;-77
2021/06/04 02:04:11;;;;;;;18.08;7.20;;;;;;;16.15;67.87;99394.41;5100568;27;20095;-77
2021/06/04 02:06:46;;;;;;;11.82;6.28;;;;;;;16.20;67.46;99399.31;5103355;27;20047;-80
2021/06/04 02:09:14;;;;;;;13.57;5.60;;;;;;;16.25;66.84;99397.84;5067059;27;20035;-80
2021/06/04 02:11:47;;;;;;;17.52;7.65;;;;;;;16.35;66.65;99394.19;5101234;27;20126;-77
2021/06/04 02:14:24;;;;;;;25.08;8.20;;;;;;;16.39;66.52;99390.19;5117858;27;20493;-79
2021/06/04 02:17:13;;;;;;;21.60;10.15;;;;;;;16.16;66.68;99393.38;5100377;27;20098;-78
2021/06/04 02:19:41;;;;;;;;;;;;;;;16.07;66.84;99402.44;5100787;27;20051;-78
2021/06/04 02:22:25;;;;;;;38.92;10.88;;;;;;;15.86;67.53;99410.00;5099723;27;19915;-80
2021/06/04 02:25:07;;;;;;;35.72;11.30;;;;;;;15.75;68.33;99401.13;5117240;27;20046;-80
2021/06/04 02:27:44;;;;;;;33.47;10.50;;;;;;;15.84;68.08;99407.47;5099604;27;20039;-78
2021/06/04 02:30:44;;;;;;;24.83;9.70;;;;;;;15.95;67.33;99420.72;5100949;27;20055;-78
2021/06/04 02:33:23;;;;;;;21.45;8.85;;;;;;;16.08;67.28;99423.00;5083586;27;20055;-80
2021/06/04 02:36:04;;;;;;;30.00;9.05;;;;;;;16.20;66.72;99419.03;5099741;27;20095;-80
2021/06/04 02:38:56;;;;;;;25.35;7.85;;;;;;;16.36;66.58;99426.44;5084103;27;20043;-81
2021/06/04 02:41:30;;;;;;;16.58;8.00;;;;;;;16.55;66.40;99425.38;5069331;27;20039;-80
2021/06/04 02:44:05;;;;;;;29.95;8.80;;;;;;;16.53;65.39;99427.38;5050029;27;20035;-79
2021/06/04 02:46:48;;;;;;;27.98;8.90;;;;;;;16.43;65.52;99427.47;5100017;27;20051;-79
2021/06/04 02:49:16;;;;;;;32.33;9.93;;;;;;;16.49;66.02;99426.84;5051089;27;20483;-79
2021/06/04 02:52:08;;;;;;;40.47;12.50;;;;;;;16.47;65.76;99433.38;5099885;27;20058;-78
2021/06/04 02:54:42;;;;;;;38.95;12.77;;;;;;;16.39;66.85;99433.34;5083854;27;20050;-82
2021/06/04 02:57:11;;;;;;;30.10;11.25;;;;;;;16.62;66.64;99433.66;5082868;27;20051;-80
2021/06/04 02:59:40;;;;;;;39.70;11.70;;;;;;;16.85;66.00;99436.69;5116268;27;20088;-79
2021/06/04 03:02:11;;;;;;;30.40;11.10;;;;;;;17.02;65.16;99435.78;5082386;27;20055;-79
2021/06/04 03:04:42;;;;;;;24.85;10.48;;;;;;;17.24;64.80;99456.81;5117208;27;20095;-79
2021/06/04 03:07:19;;;;;;;28.70;10.63;;;;;;;17.15;63.89;99451.50;5116112;27;20525;-80
2021/06/04 03:09:45;;;;;;;23.70;9.93;;;;;;;17.12;63.41;99454.56;5115977;27;20134;-78
2021/06/04 03:12:17;;;;;;;34.63;10.27;;;;;;;16.87;63.61;99446.31;5098775;27;20035;-81
2021/06/04 03:14:44;;;;;;;29.88;11.13;;;;;;;16.79;64.21;99461.66;5099354;27;20513;-78
2021/06/04 03:17:10;;;;;;;30.77;10.93;;;;;;;16.79;64.75;99458.94;5115801;27;20070;-79
2021/06/04 03:19:41;;;;;;;29.48;10.35;;;;;;;16.71;64.38;99465.94;5115908;27;20047;-78
2021/06/04 03:22:21;;;;;;;30.90;10.40;;;;;;;16.65;64.26;99454.94;5098998;27;20274;-80
2021/06/04 03:24:47;;;;;;;37.70;10.93;;;;;;;16.59;64.83;99469.09;5082262;27;20079;-78
2021/06/04 03:27:16;;;;;;;26.30;10.32;;;;;;;16.75;63.96;99472.75;5115786;27;20470;-82
2021/06/04 03:29:46;;;;;;;32.70;10.10;;;;;;;16.80;64.36;99480.38;5083387;27;20050;-81
2021/06/04 03:32:13;;;;;;;49.25;10.85;;;;;;;16.84;64.31;99483.59;5098771;28;20393;-81
2021/06/04 03:34:41;;;;;;;;;;;;;;;17.04;64.05;99482.38;5099489;27;20125;-80
2021/06/04 03:37:08;;;;;;;29.95;10.30;;;;;;;17.16;62.95;99493.75;5081831;28;19919;-80
2021/06/04 03:39:39;;;;;;;26.70;10.30;;;;;;;17.20;63.20;99500.53;5066202;27;20054;-79
2021/06/04 03:42:08;;;;;;;33.00;10.30;;;;;;;17.40;62.98;99499.25;5081928;28;20410;-84
2021/06/04 03:44:35;;;;;;;27.40;9.85;;;;;;;17.42;62.79;99501.81;5098879;27;20046;-78
2021/06/04 03:47:02;;;;;;;20.30;9.10;;;;;;;17.40;62.97;99506.50;5082718;27;20063;-81
2021/06/04 03:49:30;;;;;;;28.15;10.88;;;;;;;17.27;63.07;99508.84;5116730;28;20096;-82
2021/06/04 03:51:57;;;;;;;35.15;10.70;;;;;;;17.31;63.12;99515.59;5134141;28;20065;-82
2021/06/04 03:54:28;;;;;;;35.53;11.48;;;;;;;17.32;63.34;99512.72;5134074;27;20043;-81
2021/06/04 03:56:54;;;;;;;26.73;10.18;;;;;;;17.39;63.58;99513.78;5116811;28;20045;-87
2021/06/04 03:59:20;;;;;;;27.80;10.93;;;;;;;17.42;63.27;99518.84;5101774;28;20078;-83
2021/06/04 04:01:55;;;;;;;29.52;10.82;;;;;;;17.36;63.19;99529.47;5104022;28;20055;-82
2021/06/04 04:04:21;;;;;;;43.13;11.38;;;;;;;17.39;63.70;99534.56;5100454;28;20039;-80
2021/06/04 04:06:47;;;;;;;34.97;10.55;;;;;;;17.57;63.94;99527.19;5116090;28;20122;-84
2021/06/04 04:09:13;;;;;;;23.25;8.93;;;;;;;17.85;63.46;99537.78;5098585;28;20405;-81
2021/06/04 04:11:40;;;;;;;14.05;6.93;;;;;;;18.01;63.20;99540.53;5133508;27;20043;-84
2021/06/04 04:14:06;;;;;;;15.63;8.32;;;;;;;18.26;62.58;99552.25;5101483;27;20095;-82
2021/06/04 04:16:32;;;;;;;11.52;6.38;;;;;;;18.47;61.33;99546.38;5120031;27;20055;-79
2021/06/04 04:18:58;;;;;;;14.07;5.60;;;;;;;18.50;60.29;99551.41;5120065;27;20070;-82
2021/06/04 04:21:25;;;;;;;11.50;5.07;;;;;;;18.55;59.24;99559.06;5069596;27;20046;-81
2021/06/04 04:23:56;;;;;;;28.08;7.05;;;;;;;18.65;58.02;99571.41;5137914;27;20440;-81
2021/06/04 04:26:26;;;;;;;13.32;5.25;;;;;;;18.79;58.02;99566.34;5102348;27;20391;-79
2021/06/04 04:28:53;;;;;;;10.90;5.32;;;;;;;18.96;57.14;99559.06;5119955;27;20043;-81
2021/06/04 04:31:24;;;;;;;9.65;4.80;;;;;;;18.98;55.99;99567.84;5102260;27;20554;-81
2021/06/04 04:33:52;;;;;;;9.80;4.80;;;;;;;19.01;55.97;99571.06;5070133;27;20070;-80
2021/06/04 04:36:18;;;;;;;7.97;4.38;;;;;;;19.20;55.08;99574.44;5102009;27;20043;-79
2021/06/04 04:38:44;;;;;;;9.18;4.00;;;;;;;19.26;53.93;99579.16;5119286;27;20047;-81
2021/06/04 04:41:10;;;;;;;12.48;3.80;;;;;;;19.33;52.77;99590.97;5118893;27;20081;-79
2021/06/04 04:43:45;;;;;;;7.65;4.20;;;;;;;19.47;52.10;99587.56;5137493;27;20039;-82
2021/06/04 04:46:13;;;;;;;14.20;4.03;;;;;;;19.52;52.80;99598.75;5102550;27;20489;-79
2021/06/04 04:48:39;;;;;;;7.13;3.83;;;;;;;19.62;52.56;99604.84;5085388;27;20103;-77
2021/06/04 04:51:06;;;;;;;7.97;3.90;;;;;;;19.71;52.12;99599.38;5097136;28;20506;-83
2021/06/04 04:53:32;;;;;;;10.82;3.28;;;;;;;19.59;50.34;99607.84;5080461;28;20100;-76
2021/06/04 04:55:59;;;;;;;6.55;3.33;;;;;;;19.21;49.61;99611.34;5082006;28;20054;-77
2021/06/04 04:58:25;;;;;;;11.88;3.72;;;;;;;19.08;49.70;99609.16;5116632;28;20047;-79
2021/06/04 05:00:51;;;;;;;8.35;3.28;;;;;;;19.08;48.86;99610.00;5098119;28;20043;-77
2021/06/04 05:03:19;;;;;;;6.18;3.40;;;;;;;19.15;48.65;99611.03;5108474;28;20047;-77
2021/06/04 05:05:45;;;;;;;10.70;3.28;;;;;;;19.05;48.19;99610.34;5060767;28;20101;-77
2021/06/04 05:08:10;;;;;;;6.15;2.85;;;;;;;19.09;49.26;99611.69;5092642;28;20531;-78
2021/06/04 05:10:37;;;;;;;11.35;3.25;;;;;;;19.08;49.04;99617.31;5093053;28;20139;-78
2021/06/04 05:13:03;;;;;;;13.77;3.10;;;;;;;19.06;49.52;99613.91;5094481;28;20566;-75
2021/06/04 05:15:31;;;;;;;13.60;3.70;;;;;;;19.16;49.36;99620.84;5094419;28;20055;-76
2021/06/04 05:17:57;;;;;;;4.35;2.60;;;;;;;19.10;50.04;99617.97;5094387;28;20044;-77
2021/06/04 05:20:23;;;;;;;10.70;3.00;;;;;;;18.96;50.11;99624.94;5094405;28;20473;-77
2021/06/04 05:22:49;;;;;;;15.13;3.13;;;;;;;19.04;50.28;99635.75;5094494;28;20079;-76
2021/06/04 05:25:19;;;;;;;10.95;3.10;;;;;;;19.19;49.86;99632.38;5094824;28;20582;-77
2021/06/04 05:27:45;;;;;;;8.60;3.58;;;;;;;19.11;49.59;99625.09;5077777;28;20036;-76
2021/06/04 05:30:23;;;;;;;7.95;3.50;;;;;;;19.28;49.15;99631.31;5093837;28;20052;-76
2021/06/04 05:32:49;;;;;;;7.93;3.10;;;;;;;19.68;49.18;99643.97;5078766;28;20044;-77
2021/06/04 05:35:15;;;;;;;12.32;3.22;;;;;;;20.06;48.53;99645.03;5095461;28;20521;-77
2021/06/04 05:37:41;;;;;;;10.23;3.28;;;;;;;20.39;47.23;99653.00;5095161;28;20048;-76
2021/06/04 05:40:13;;;;;;;8.48;3.10;;;;;;;20.45;45.78;99648.72;5094108;28;20044;-77
2021/06/04 05:42:39;;;;;;;9.63;3.20;;;;;;;20.48;45.64;99651.91;5027681;28;20040;-77
2021/06/04 05:45:06;;;;;;;10.63;2.92;;;;;;;20.51;45.19;99650.75;5093841;28;20039;-76
2021/06/04 05:47:32;;;;;;;11.02;2.90;;;;;;;20.53;43.62;99654.97;5093879;28;20047;-77
2021/06/04 05:49:57;;;;;;;8.05;2.78;;;;;;;20.57;44.18;99658.16;5060090;28;20508;-76
2021/06/04 05:52:23;;;;;;;10.07;3.05;;;;;;;20.61;44.63;99663.09;5076438;28;20056;-76
2021/06/04 05:54:49;;;;;;;8.50;2.92;;;;;;;20.58;43.41;99668.88;5094977;28;20082;-77
2021/06/04 05:57:16;;;;;;;10.10;2.58;;;;;;;20.69;43.35;99661.34;5094897;28;20052;-77
2021/06/04 05:59:42;;;;;;;15.27;2.35;;;;;;;20.61;41.54;99665.81;5093514;28;20032;-76
2021/06/04 06:02:08;;;;;;;5.63;2.45;;;;;;;20.53;42.57;99667.72;5094800;28;20044;-75
2021/06/04 06:04:34;;;;;;;8.73;2.33;;;;;;;20.79;42.21;99679.06;5093374;28;20480;-77
2021/06/04 06:07:00;;;;;;;13.57;2.42;;;;;;;21.00;40.55;99673.00;5076633;28;20055;-76
2021/06/04 06:09:29;;;;;;;11.15;2.15;;;;;;;20.86;39.82;99673.78;5094577;28;20040;-76
2021/06/04 06:11:55;;;;;;;7.72;2.00;;;;;;;20.44;40.42;99683.19;5094269;28;20505;-77
2021/06/04 06:14:20;;;;;;;12.93;2.55;;;;;;;20.42;40.93;99677.06;5094559;28;20078;-76
2021/06/04 06:16:46;;;;;;;18.33;2.38;;;;;;;20.60;39.80;99666.81;5094409;28;20040;-77
2021/06/04 06:19:13;;;;;;;10.45;2.35;;;;;;;20.84;40.34;99686.72;5094807;28;20043;-77
2021/06/04 06:21:40;;;;;;;9.18;2.28;;;;;;;20.91;40.27;99681.38;5094453;28;20051;-76
2021/06/04 06:24:06;;;;;;;10.13;2.22;;;;;;;21.21;40.04;99691.34;5042981;28;20051;-77
2021/06/04 06:26:32;;;;;;;14.18;2.80;;;;;;;21.20;40.64;99695.06;5092696;28;20051;-77
2021/06/04 06:28:59;;;;;;;4.55;2.10;;;;;;;21.30;38.93;99694.84;5076248;28;20579;-78
2021/06/04 06:31:32;;;;;;;4.18;2.15;;;;;;;21.30;38.93;99711.16;5059759;28;20044;-76
2021/06/04 06:33:59;;;;;;;37.00;3.17;;;;;;;21.42;38.96;99709.72;5076840;28;20043;-76
2021/06/04 06:36:27;;;;;;;14.75;2.70;;;;;;;21.44;38.84;99710.38;5092081;28;20074;-77
2021/06/04 06:38:54;;;;;;;5.17;2.37;;;;;;;21.33;38.44;99708.94;5075913;28;20056;-76
2021/06/04 06:41:21;;;;;;;7.50;2.10;;;;;;;21.19;39.00;99714.31;5059504;28;20043;-77
2021/06/04 06:43:47;;;;;;;6.15;2.10;;;;;;;21.27;39.64;99712.34;5093913;28;20089;-78
2021/06/04 06:46:13;;;;;;;7.47;2.83;;;;;;;21.30;39.11;99716.59;5059264;28;20138;-76
2021/06/04 06:48:39;;;;;;;12.57;2.60;;;;;;;21.51;39.21;99724.94;5075695;28;20045;-77
2021/06/04 06:51:06;;;;;;;12.18;2.40;;;;;;;21.44;39.06;99726.69;5098551;28;20456;-77
2021/06/04 06:53:32;;;;;;;13.30;2.30;;;;;;;21.54;39.13;99740.88;5096091;28;20168;-76
2021/06/04 06:55:58;;;;;;;4.43;2.40;;;;;;;21.61;38.87;99734.69;5114137;28;20077;-76
2021/06/04 06:58:24;;;;;;;8.95;2.22;;;;;;;21.63;39.11;99747.09;5113949;28;20550;-76
2021/06/04 07:00:51;;;;;;;4.25;2.03;;;;;;;21.57;39.25;99735.06;5079404;28;20044;-78
2021/06/04 07:03:23;;;;;;;8.05;2.78;;;;;;;21.78;39.33;99739.81;5079164;28;20402;-77
2021/06/04 07:05:50;;;;;;;6.55;2.20;;;;;;;21.77;39.32;99751.69;5095712;28;20055;-76
2021/06/04 07:08:16;;;;;;;14.52;2.65;;;;;;;21.77;38.70;99751.69;5078995;28;20116;-77
2021/06/04 07:10:42;;;;;;;5.45;2.35;;;;;;;21.61;39.37;99751.03;5095598;28;20043;-76
2021/06/04 07:13:10;;;;;;;5.65;2.10;;;;;;;21.68;39.73;99757.44;5078497;28;20490;-77
2021/06/04 07:15:37;;;;;;;10.52;2.25;;;;;;;21.68;39.87;99762.88;5029517;28;20101;-77
2021/06/04 07:18:03;;;;;;;11.13;2.78;;;;;;;21.65;39.65;99764.06;5095710;28;20052;-78
2021/06/04 07:20:30;;;;;;;10.02;2.70;;;;;;;21.82;39.83;99768.34;5113872;28;20398;-78
2021/06/04 07:22:56;;;;;;;10.75;2.30;;;;;;;21.75;39.63;99766.53;5078370;28;20644;-77
2021/06/04 07:25:24;;;;;;;12.23;2.20;;;;;;;21.92;39.78;99776.22;5113424;28;20386;-77
2021/06/04 07:27:51;;;;;;;6.05;2.30;;;;;;;22.04;39.64;99774.75;5113810;28;20044;-76
2021/06/04 07:30:25;;;;;;;12.18;2.50;;;;;;;22.30;39.11;99776.19;5113725;28;20530;-78
2021/06/04 07:32:51;;;;;;;10.00;2.03;;;;;;;22.26;39.24;99774.88;5045716;28;20049;-76
2021/06/04 07:35:18;;;;;;;16.52;4.68;;;;;;;22.14;39.31;99782.66;5113023;28;20090;-76
2021/06/04 07:37:44;;;;;;;7.03;2.72;;;;;;;22.10;39.82;99783.19;5062278;28;20115;-74
2021/06/04 07:40:12;;;;;;;15.48;2.75;;;;;;;22.07;38.98;99795.28;5113292;28;20525;-77
2021/06/04 07:42:39;;;;;;;13.55;2.60;;;;;;;22.00;39.49;99794.34;5078366;28;20043;-75
2021/06/04 07:45:06;;;;;;;12.32;2.40;;;;;;;21.97;39.60;99797.47;5113370;28;20050;-74
2021/06/04 07:47:32;;;;;;;18.33;2.50;;;;;;;22.06;39.41;99791.72;5078149;28;20035;-76
2021/06/04 07:49:58;;;;;;;11.90;2.67;;;;;;;22.09;39.14;99798.69;5094660;28;20130;-75
2021/06/04 07:52:24;;;;;;;16.48;2.95;;;;;;;21.94;39.52;99801.38;5113558;28;20105;-77
2021/06/04 07:54:50;;;;;;;16.65;3.10;;;;;;;21.79;40.26;99797.78;5077950;28;20047;-77
2021/06/04 07:57:16;;;;;;;17.58;2.65;;;;;;;21.93;40.44;99805.16;5078408;28;20118;-76
2021/06/04 07:59:42;;;;;;;16.42;2.33;;;;;;;21.74;40.40;99794.75;5095125;28;20135;-76
2021/06/04 08:02:08;;;;;;;10.57;2.50;;;;;;;21.88;40.02;99806.72;5085041;28;20112;-76
2021/06/04 08:04:35;;;;;;;13.95;2.75;;;;;;;21.81;40.77;99807.47;5071144;28;20043;-78
2021/06/04 08:07:01;;;;;;;6.65;3.20;;;;;;;21.79;40.09;99811.41;5061358;28;20134;-74
2021/06/04 08:09:27;;;;;;;8.85;2.40;;;;;;;21.64;40.80;99815.97;5112351;28;20035;-75
2021/06/04 08:11:58;;;;;;;16.00;3.10;;;;;;;21.62;40.62;99816.13;5094976;28;20047;-78
2021/06/04 08:14:25;;;;;;;10.50;2.22;;;;;;;21.25;40.74;99816.88;5061528;28;20135;-80
2021/06/04 08:16:51;;;;;;;11.77;2.72;;;;;;;21.29;41.19;99824.50;5094441;28;20044;-78
2021/06/04 08:19:17;;;;;;;15.45;2.63;;;;;;;21.36;41.33;99811.03;5112409;28;20507;-78
2021/06/04 08:21:48;;;;;;;13.20;2.92;;;;;;;21.34;41.65;99822.13;5077419;28;20104;-76
2021/06/04 08:24:15;;;;;;;13.98;2.70;;;;;;;21.20;41.86;99830.16;5094703;28;20100;-74
2021/06/04 08:26:41;;;;;;;9.68;2.70;;;;;;;21.26;42.36;99840.34;5080721;28;20031;-78
2021/06/04 08:29:08;;;;;;;14.68;2.75;;;;;;;21.28;42.10;99841.81;5069074;28;20082;-84
2021/06/04 08:31:34;;;;;;;11.15;2.47;;;;;;;21.07;42.36;99836.19;5077465;28;20441;-78
2021/06/04 08:34:00;;;;;;;17.30;2.60;;;;;;;20.92;42.65;99838.81;5077376;28;20043;-79
2021/06/04 08:36:31;;;;;;;8.80;2.72;;;;;;;20.89;42.87;99839.19;5078621;28;20086;-75
2021/06/04 08:38:59;;;;;;;9.18;2.90;;;;;;;20.81;42.53;99834.63;5077423;28;20410;-76
2021/06/04 08:41:48;;;;;;;12.50;2.40;;;;;;;20.70;43.30;99834.16;5060937;28;20063;-75
2021/06/04 08:44:14;;;;;;;10.43;2.90;;;;;;;20.48;43.78;99842.00;5098786;28;20043;-75
2021/06/04 08:46:46;;;;;;;10.65;2.92;;;;;;;20.31;44.09;99845.78;5112026;28;20039;-78
2021/06/04 08:49:15;;;;;;;11.95;2.65;;;;;;;20.24;44.56;99844.81;5061330;28;20044;-74
2021/06/04 08:52:13;;;;;;;6.72;2.28;;;;;;;20.09;44.97;99853.66;5094200;28;20059;-76
2021/06/04 08:54:45;;;;;;;12.27;3.42;;;;;;;19.99;45.52;99854.84;5077154;28;20039;-77
2021/06/04 08:57:44;;;;;;;15.55;3.08;;;;;;;19.65;46.37;99855.88;5093543;28;20039;-75
2021/06/04 09:00:32;;;;;;;16.17;2.60;;;;;;;19.71;46.51;99870.59;5063326;28;20035;-76
2021/06/04 09:03:28;;;;;;;14.13;2.30;;;;;;;19.57;47.25;99859.38;5115211;28;20055;-75
2021/06/04 09:06:03;;;;;;;17.60;3.17;;;;;;;19.63;47.59;99857.88;5078441;28;20070;-78
2021/06/04 09:08:31;;;;;;;6.22;2.72;;;;;;;19.68;47.54;99862.81;5064430;28;20508;-75
2021/06/04 09:10:59;;;;;;;21.97;3.63;;;;;;;19.73;48.07;99855.88;5080533;28;20059;-78
2021/06/04 09:13:34;;;;;;;11.43;2.90;;;;;;;19.91;49.02;99858.41;5080289;28;20052;-75
2021/06/04 09:16:26;;;;;;;18.85;3.30;;;;;;;20.08;47.86;99862.81;5080463;28;20051;-76
2021/06/04 09:18:57;;;;;;;10.23;2.70;;;;;;;20.29;47.18;99861.41;5100024;28;20051;-82
2021/06/04 09:21:29;;;;;;;28.55;3.40;;;;;;;20.40;46.85;99858.34;5097567;28;20563;-77
2021/06/04 09:23:54;;;;;;;8.30;2.83;;;;;;;20.35;47.00;99866.16;5080640;28;20499;-76
2021/06/04 09:26:21;;;;;;;8.27;3.20;;;;;;;20.39;46.77;99856.66;5062822;28;20039;-77
2021/06/04 09:29:05;;;;;;;17.45;3.60;;;;;;;20.54;47.50;99857.66;5080768;28;20039;-76
2021/06/04 09:31:38;;;;;;;8.75;2.70;;;;;;;20.62;46.93;99864.94;5115307;28;20075;-75
2021/06/04 09:34:15;;;;;;;14.93;3.47;;;;;;;20.73;45.94;99852.84;5063775;28;20043;-77
2021/06/04 09:36:52;;;;;;;14.32;4.45;;;;;;;20.90;46.37;99862.59;5079935;28;20079;-77
2021/06/04 09:39:23;;;;;;;13.02;3.15;;;;;;;21.16;45.86;99859.59;5063430;28;20491;-76
2021/06/04 09:41:49;;;;;;;22.90;3.28;;;;;;;21.04;45.44;99856.41;5062920;28;20062;-78
2021/06/04 09:44:19;;;;;;;17.17;3.30;;;;;;;21.21;44.89;99850.88;5097110;28;20126;-75
2021/06/04 09:46:48;;;;;;;10.68;2.90;;;;;;;21.42;44.93;99861.16;5097017;28;20525;-76
2021/06/04 09:49:36;;;;;;;14.00;3.25;;;;;;;21.68;43.64;99860.81;5079663;28;20040;-78
2021/06/04 09:52:26;;;;;;;13.77;3.30;;;;;;;21.94;43.70;99855.00;5079777;28;20052;-78
2021/06/04 09:55:11;;;;;;;9.60;2.58;;;;;;;22.29;43.32;99861.66;5096998;28;20052;-79
2021/06/04 09:57:37;;;;;;;12.93;3.03;;;;;;;22.42;43.90;99864.59;5114616;28;20050;-76
2021/06/04 10:00:15;;;;;;;13.88;2.70;;;;;;;22.74;42.11;99851.59;5079920;28;20116;-77
2021/06/04 10:02:41;;;;;;;10.70;2.70;;;;;;;22.65;43.09;99860.94;5097667;28;20051;-75
2021/06/04 10:05:26;;;;;;;15.63;2.72;;;;;;;23.08;41.79;99863.81;5115257;28;20048;-78
2021/06/04 10:08:05;;;;;;;14.13;2.92;;;;;;;23.89;41.77;99859.91;5080262;28;20048;-78
2021/06/04 10:10:31;;;;;;;;;;;;;;;24.27;40.04;99872.38;5081885;28;20078;-78
2021/06/04 10:13:02;;;;;;;17.95;3.83;;;;;;;24.22;39.32;99867.50;5079617;28;20039;-77
2021/06/04 10:15:43;;;;;;;7.05;2.55;;;;;;;23.96;39.05;99874.47;5097614;28;20501;-79
2021/06/04 10:18:26;;;;;;;23.17;4.15;;;;;;;24.16;38.88;99863.69;5063966;28;20501;-76
2021/06/04 10:20:52;;;;;;;12.05;3.42;;;;;;;24.37;39.03;99861.94;5115216;28;20106;-77
2021/06/04 10:23:37;;;;;;;9.40;2.72;;;;;;;24.68;39.43;99877.97;5079821;28;20108;-76
2021/06/04 10:26:34;;;;;;;21.50;3.75;;;;;;;24.78;38.28;99883.88;5079981;28;20051;-79
2021/06/04 10:29:03;;;;;;;9.20;3.00;;;;;;;24.47;38.13;99881.59;5105107;27;20042;-78
2021/06/04 10:31:28;;;;;;;;;;;;;;;24.30;37.58;99882.91;5109372;27;20497;-76
2021/06/04 10:34:11;;;;;;;17.20;3.20;;;;;;;24.18;38.83;99888.94;5114111;28;19920;-76
2021/06/04 10:36:39;;;;;;;11.95;3.00;;;;;;;23.73;39.57;99890.16;5062231;28;20083;-76
2021/06/04 10:39:10;;;;;;;5.72;2.92;;;;;;;23.85;39.38;99894.09;5066337;27;20116;-77
2021/06/04 10:41:54;;;;;;;6.63;2.33;;;;;;;23.71;39.04;99892.28;5081265;27;20410;-77
2021/06/04 10:44:33;;;;;;;11.15;2.85;;;;;;;23.61;39.32;99884.34;5100410;27;20379;-76
2021/06/04 10:47:14;;;;;;;12.98;2.60;;;;;;;23.46;39.48;99889.88;5084849;27;20039;-77
2021/06/04 10:49:50;;;;;;;11.43;2.63;;;;;;;23.43;39.33;99884.81;5085006;27;20111;-77
2021/06/04 10:52:23;;;;;;;29.33;3.42;;;;;;;23.30;39.92;99898.28;5102086;27;20081;-76
2021/06/04 10:55:26;;;;;;;10.93;3.08;;;;;;;23.26;40.09;99892.38;5084139;27;20074;-76
2021/06/04 10:57:59;;;;;;;11.15;2.42;;;;;;;23.22;40.41;99884.78;5136404;27;20565;-77
2021/06/04 11:00:28;;;;;;;16.73;2.90;;;;;;;23.16;40.38;99893.69;5101512;27;20050;-76
2021/06/04 11:03:19;;;;;;;10.40;2.90;;;;;;;23.23;40.19;99900.94;5083559;27;20047;-76
2021/06/04 11:06:08;;;;;;;15.43;2.67;;;;;;;22.94;40.67;99896.38;5135860;27;20035;-78
2021/06/04 11:08:47;;;;;;;17.08;2.58;;;;;;;22.90;40.88;99903.19;5091485;27;20046;-77
2021/06/04 11:11:19;;;;;;;9.07;2.40;;;;;;;22.92;40.59;99906.63;5101151;27;20046;-77
2021/06/04 11:13:48;;;;;;;6.88;2.20;;;;;;;23.03;40.73;99906.13;5082715;27;20049;-77
2021/06/04 11:16:20;;;;;;;11.18;2.45;;;;;;;23.13;40.79;99907.72;5116796;27;20528;-76
2021/06/04 11:18:51;;;;;;;5.50;2.20;;;;;;;23.39;40.55;99909.91;5117099;27;20054;-76
2021/06/04 11:21:31;;;;;;;21.45;1.98;;;;;;;23.45;39.59;99920.09;5049572;27;20051;-79
2021/06/04 11:24:03;;;;;;;17.70;2.55;;;;;;;23.45;39.81;99903.72;5078842;27;20443;-78
2021/06/04 11:26:36;;;;;;;14.65;2.47;;;;;;;23.66;39.41;99919.28;5106069;28;20055;-79
2021/06/04 11:29:10;;;;;;;7.40;1.95;;;;;;;23.47;37.85;99912.56;5080280;28;20506;-77
2021/06/04 11:31:39;;;;;;;13.48;2.10;;;;;;;23.18;38.49;99929.81;5063094;27;20036;-79
2021/06/04 11:34:07;;;;;;;5.70;1.88;;;;;;;23.12;38.81;99919.66;5090133;28;20502;-75
2021/06/04 11:36:34;;;;;;;8.98;2.63;;;;;;;22.97;39.22;99922.41;5093437;28;20502;-78
2021/06/04 11:39:09;;;;;;;10.85;2.10;;;;;;;22.68;38.26;99923.22;5080015;28;20047;-77
2021/06/04 11:41:49;;;;;;;12.65;2.28;;;;;;;22.40;38.61;99925.72;5080788;28;20074;-76
2021/06/04 11:44:31;;;;;;;13.20;2.10;;;;;;;22.03;38.80;99925.50;5079454;27;20035;-79
2021/06/04 11:47:12;;;;;;;10.15;2.28;;;;;;;21.35;38.86;99931.75;5082475;28;20069;-77
2021/06/04 11:50:10;;;;;;;9.38;2.22;;;;;;;20.99;40.75;99937.66;5136770;27;20041;-76
2021/06/04 11:52:45;;;;;;;10.52;2.10;;;;;;;20.79;40.90;99933.63;5087645;28;20465;-78
2021/06/04 11:55:19;;;;;;;8.80;2.20;;;;;;;20.91;40.76;99939.53;5093337;28;20052;-78
2021/06/04 11:57:54;;;;;;;6.78;2.28;;;;;;;20.63;41.09;99934.53;5100979;28;20043;-77